createdAt,value
2022-08-22T00:03:19.100Z,49.05
2022-08-22T00:03:23.835Z,76.97
2022-08-22T00:04:19.547Z,77.38
2022-08-22T00:05:19.547Z,77.38
2022-08-22T00:06:19.572Z,76.97
2022-08-22T00:07:19.507Z,76.94
2022-08-22T00:08:19.512Z,76.94
2022-08-22T00:09:19.486Z,76.64
2022-08-22T00:10:24.981Z,76.43
2022-08-22T00:11:19.486Z,76.14
2022-08-22T00:12:19.420Z,75.70
2022-08-22T00:13:19.428Z,75.79
2022-08-22T00:14:19.448Z,75.39
2022-08-22T00:15:42.612Z,74.85
2022-08-22T00:16:19.408Z,74.65
2022-08-22T00:17:19.356Z,74.55
2022-08-22T00:18:19.391Z,74.45
2022-08-22T00:19:19.382Z,74.45
2022-08-22T00:20:19.321Z,74.75
2022-08-22T00:21:19.315Z,75.29
2022-08-22T00:22:19.304Z,75.70
2022-08-22T00:23:19.299Z,75.83
2022-08-22T00:24:19.268Z,76.10
2022-08-22T00:25:25.637Z,76.40
2022-08-22T00:26:19.268Z,76.10
2022-08-22T00:27:19.218Z,75.09
2022-08-22T00:28:19.218Z,74.69
2022-08-22T00:29:19.223Z,74.99
2022-08-22T00:30:19.189Z,74.85
2022-08-22T00:31:19.185Z,74.55
2022-08-22T00:32:19.182Z,74.55
2022-08-22T00:33:19.179Z,74.35
2022-08-22T00:34:19.162Z,73.95
2022-08-22T00:35:19.168Z,73.75
2022-08-22T00:36:19.115Z,73.55
2022-08-22T00:37:19.093Z,73.61
2022-08-22T00:38:19.083Z,73.21
2022-08-22T00:39:19.092Z,73.21
2022-08-22T00:40:19.172Z,73.11
2022-08-22T00:41:19.034Z,72.77
2022-08-22T00:42:31.876Z,72.57
2022-08-22T00:43:19.094Z,72.57
2022-08-22T00:44:19.017Z,72.67
2022-08-22T00:45:19.005Z,72.47
2022-08-22T00:46:18.979Z,72.27
2022-08-22T00:47:18.954Z,72.27
2022-08-22T00:48:19.014Z,72.37
2022-08-22T00:49:18.950Z,72.57
2022-08-22T00:50:18.914Z,72.57
2022-08-22T00:51:18.905Z,72.47
2022-08-22T00:52:18.887Z,72.67
2022-08-22T00:53:18.874Z,72.57
2022-08-22T00:54:18.891Z,72.57
2022-08-22T00:55:18.852Z,72.57
2022-08-22T00:56:18.858Z,72.47
2022-08-22T00:57:18.829Z,72.47
2022-08-22T00:58:18.845Z,72.57
2022-08-22T00:59:23.994Z,72.47
2022-08-22T01:00:18.796Z,72.57
2022-08-22T01:01:18.877Z,72.37
2022-08-22T01:02:18.777Z,72.47
2022-08-22T01:03:18.758Z,72.37
2022-08-22T01:04:18.775Z,72.47
2022-08-22T01:05:18.773Z,72.27
2022-08-22T01:06:18.707Z,72.17
2022-08-22T01:07:18.700Z,72.07
2022-08-22T01:08:18.672Z,72.17
2022-08-22T01:09:18.686Z,72.37
2022-08-22T01:10:18.643Z,72.47
2022-08-22T01:11:18.637Z,72.57
2022-08-22T01:12:18.630Z,72.91
2022-08-22T01:13:18.722Z,73.21
2022-08-22T01:14:18.627Z,73.55
2022-08-22T01:15:18.574Z,74.25
2022-08-22T01:16:18.576Z,74.79
2022-08-22T01:17:18.548Z,75.19
2022-08-22T01:18:18.581Z,75.53
2022-08-22T01:19:18.531Z,75.96
2022-08-22T01:20:18.545Z,76.27
2022-08-22T01:21:20.747Z,76.61
2022-08-22T01:22:18.511Z,76.91
2022-08-22T01:23:18.477Z,77.21
2022-08-22T01:24:18.461Z,77.42
2022-08-22T01:25:18.449Z,77.55
2022-08-22T01:26:19.380Z,77.75
2022-08-22T01:27:18.409Z,77.75
2022-08-22T01:28:18.412Z,77.86
2022-08-22T01:29:18.384Z,77.95
2022-08-22T01:30:18.400Z,78.06
2022-08-22T01:31:18.384Z,77.95
2022-08-22T01:32:18.354Z,78.06
2022-08-22T01:33:18.359Z,78.09
2022-08-22T01:34:18.331Z,78.19
2022-08-22T01:35:18.328Z,78.19
2022-08-22T01:36:18.320Z,78.30
2022-08-22T01:37:18.288Z,78.39
2022-08-22T01:38:18.262Z,78.59
2022-08-22T01:39:18.957Z,78.59
2022-08-22T01:40:18.279Z,78.59
2022-08-22T01:41:19.027Z,78.59
2022-08-22T01:42:18.217Z,78.50
2022-08-22T01:43:18.218Z,78.50
2022-08-22T01:44:18.246Z,78.50
2022-08-22T01:45:18.166Z,78.50
2022-08-22T01:46:21.422Z,78.39
2022-08-22T01:47:18.142Z,78.39
2022-08-22T01:48:18.140Z,78.53
2022-08-22T01:49:18.141Z,78.74
2022-08-22T01:50:18.114Z,78.94
2022-08-22T01:51:18.096Z,79.14
2022-08-22T01:52:19.531Z,79.38
2022-08-22T01:53:18.080Z,79.28
2022-08-22T01:54:18.118Z,79.28
2022-08-22T01:55:18.046Z,79.38
2022-08-22T01:56:18.034Z,79.48
2022-08-22T01:57:18.526Z,79.38
2022-08-22T01:58:18.013Z,79.28
2022-08-22T01:59:17.979Z,79.17
2022-08-22T02:00:18.834Z,79.08
2022-08-22T02:01:18.056Z,79.17
2022-08-22T02:02:17.968Z,79.38
2022-08-22T02:03:17.967Z,79.48
2022-08-22T02:04:17.925Z,79.28
2022-08-22T02:05:17.928Z,79.38
2022-08-22T02:06:17.896Z,79.58
2022-08-22T02:07:17.868Z,79.38
2022-08-22T02:08:17.873Z,79.28
2022-08-22T02:09:17.868Z,79.38
2022-08-22T02:10:17.844Z,79.24
2022-08-22T02:11:17.820Z,78.84
2022-08-22T02:12:21.807Z,78.53
2022-08-22T02:13:17.813Z,78.63
2022-08-22T02:14:17.803Z,78.53
2022-08-22T02:15:17.772Z,78.39
2022-08-22T02:16:17.772Z,78.09
2022-08-22T02:17:17.763Z,77.89
2022-08-22T02:18:17.746Z,77.69
2022-08-22T02:19:17.748Z,77.59
2022-08-22T02:20:17.841Z,77.15
2022-08-22T02:21:17.697Z,76.64
2022-08-22T02:22:17.689Z,76.14
2022-08-22T02:23:17.673Z,75.94
2022-08-22T02:24:17.647Z,75.50
2022-08-22T02:25:17.672Z,75.20
2022-08-22T02:26:18.469Z,75.80
2022-08-22T02:27:17.607Z,75.50
2022-08-22T02:28:17.609Z,75.20
2022-08-22T02:29:17.593Z,75.10
2022-08-22T02:30:17.692Z,75.10
2022-08-22T02:31:17.550Z,75.30
2022-08-22T02:32:17.551Z,75.60
2022-08-22T02:33:17.528Z,75.70
2022-08-22T02:34:17.521Z,75.50
2022-08-22T02:35:17.523Z,75.80
2022-08-22T02:36:17.530Z,75.60
2022-08-22T02:37:17.462Z,75.60
2022-08-22T02:38:17.458Z,75.84
2022-08-22T02:39:17.467Z,75.84
2022-08-22T02:40:17.510Z,76.14
2022-08-22T02:41:17.428Z,76.04
2022-08-22T02:42:17.426Z,75.74
2022-08-22T02:43:17.390Z,75.84
2022-08-22T02:44:17.417Z,76.31
2022-08-22T02:45:17.368Z,76.04
2022-08-22T02:46:17.383Z,76.14
2022-08-22T02:47:17.336Z,76.20
2022-08-22T02:48:17.317Z,76.00
2022-08-22T02:49:17.373Z,76.04
2022-08-22T02:50:17.532Z,76.24
2022-08-22T02:51:17.285Z,76.44
2022-08-22T02:52:17.264Z,76.64
2022-08-22T02:53:17.257Z,76.88
2022-08-22T02:54:17.279Z,77.08
2022-08-22T02:55:17.221Z,77.42
2022-08-22T02:56:17.228Z,77.73
2022-08-22T02:57:17.233Z,78.17
2022-08-22T02:58:17.183Z,78.47
2022-08-22T02:59:17.211Z,78.37
2022-08-22T03:00:30.901Z,78.50
2022-08-22T03:01:17.170Z,78.81
2022-08-22T03:02:17.144Z,79.11
2022-08-22T03:03:17.204Z,79.46
2022-08-22T03:04:17.121Z,79.86
2022-08-22T03:05:17.185Z,80.06
2022-08-22T03:06:17.081Z,80.16
2022-08-22T03:07:17.108Z,80.46
2022-08-22T03:08:17.054Z,80.80
2022-08-22T03:09:17.048Z,81.01
2022-08-22T03:10:17.043Z,81.01
2022-08-22T03:11:17.003Z,80.91
2022-08-22T03:12:17.015Z,80.77
2022-08-22T03:13:16.990Z,80.66
2022-08-22T03:14:16.996Z,80.87
2022-08-22T03:15:16.958Z,80.77
2022-08-22T03:16:16.933Z,80.87
2022-08-22T03:17:16.960Z,81.27
2022-08-22T03:18:16.920Z,81.78
2022-08-22T03:19:18.584Z,81.98
2022-08-22T03:20:16.945Z,81.78
2022-08-22T03:21:16.897Z,81.57
2022-08-22T03:22:16.895Z,81.78
2022-08-22T03:23:16.850Z,81.78
2022-08-22T03:24:16.859Z,81.68
2022-08-22T03:25:16.836Z,81.54
2022-08-22T03:26:16.813Z,81.84
2022-08-22T03:27:27.735Z,81.78
2022-08-22T03:28:16.799Z,81.78
2022-08-22T03:29:16.776Z,81.68
2022-08-22T03:30:16.758Z,81.68
2022-08-22T03:31:16.767Z,81.88
2022-08-22T03:32:16.748Z,81.78
2022-08-22T03:33:16.713Z,81.68
2022-08-22T03:34:16.715Z,81.27
2022-08-22T03:35:16.723Z,81.07
2022-08-22T03:36:16.675Z,80.97
2022-08-22T03:37:16.667Z,80.83
2022-08-22T03:38:16.645Z,80.53
2022-08-22T03:39:17.607Z,80.43
2022-08-22T03:40:16.692Z,80.22
2022-08-22T03:41:16.607Z,80.02
2022-08-22T03:42:16.601Z,79.88
2022-08-22T03:43:16.624Z,79.99
2022-08-22T03:44:16.574Z,80.08
2022-08-22T03:45:16.587Z,80.08
2022-08-22T03:46:17.833Z,79.99
2022-08-22T03:47:16.563Z,79.28
2022-08-22T03:48:16.536Z,78.41
2022-08-22T03:49:16.516Z,79.15
2022-08-22T03:50:16.506Z,80.36
2022-08-22T03:51:16.491Z,81.62
2022-08-22T03:52:16.485Z,82.32
2022-08-22T03:53:19.030Z,82.97
2022-08-22T03:54:16.433Z,83.58
2022-08-22T03:55:16.431Z,84.39
2022-08-22T03:56:16.429Z,84.93
2022-08-22T03:57:16.425Z,84.93
2022-08-22T03:58:27.661Z,84.93
2022-08-22T03:59:16.385Z,84.93
2022-08-22T04:00:16.389Z,84.93
2022-08-22T04:01:16.425Z,84.73
2022-08-22T04:02:41.718Z,84.53
2022-08-22T04:03:16.459Z,84.63
2022-08-22T04:04:16.296Z,84.73
2022-08-22T04:05:16.321Z,84.73
2022-08-22T04:06:16.271Z,84.59
2022-08-22T04:07:28.152Z,84.28
2022-08-22T04:08:16.271Z,82.97
2022-08-22T04:09:16.294Z,82.46
2022-08-22T04:10:16.222Z,81.55
2022-08-22T04:11:16.233Z,81.35
2022-08-22T04:12:16.200Z,81.45
2022-08-22T04:13:16.197Z,81.41
2022-08-22T04:14:16.172Z,81.65
2022-08-22T04:15:16.193Z,82.06
2022-08-22T04:16:16.171Z,82.20
2022-08-22T04:17:16.156Z,82.90
2022-08-22T04:18:16.120Z,83.31
2022-08-22T04:19:16.194Z,83.65
2022-08-22T04:20:16.664Z,84.16
2022-08-22T04:21:16.104Z,84.56
2022-08-22T04:22:16.061Z,85.21
2022-08-22T04:23:16.116Z,85.72
2022-08-22T04:24:16.027Z,86.02
2022-08-22T04:25:16.049Z,86.07
2022-08-22T04:26:16.014Z,86.37
2022-08-22T04:27:16.040Z,86.57
2022-08-22T04:28:15.974Z,86.57
2022-08-22T04:29:15.992Z,86.82
2022-08-22T04:30:15.957Z,86.82
2022-08-22T04:31:15.951Z,87.02
2022-08-22T04:32:15.963Z,87.32
2022-08-22T04:33:15.951Z,87.46
2022-08-22T04:34:15.912Z,87.67
2022-08-22T04:35:15.890Z,88.07
2022-08-22T04:36:15.884Z,88.18
2022-08-22T04:37:15.894Z,88.18
2022-08-22T04:38:15.857Z,88.18
2022-08-22T04:39:15.838Z,88.28
2022-08-22T04:40:15.923Z,87.93
2022-08-22T04:41:15.825Z,87.93
2022-08-22T04:42:32.146Z,87.93
2022-08-22T04:43:15.809Z,87.69
2022-08-22T04:44:15.802Z,87.48
2022-08-22T04:45:15.754Z,87.59
2022-08-22T04:46:15.740Z,87.59
2022-08-22T04:47:15.745Z,87.28
2022-08-22T04:48:15.714Z,87.08
2022-08-22T04:49:15.742Z,86.94
2022-08-22T04:50:15.696Z,86.53
2022-08-22T04:51:15.700Z,85.52
2022-08-22T04:52:15.725Z,84.77
2022-08-22T04:53:15.715Z,84.56
2022-08-22T04:54:15.678Z,84.47
2022-08-22T04:55:15.652Z,84.33
2022-08-22T04:56:15.659Z,84.02
2022-08-22T04:57:15.614Z,84.02
2022-08-22T04:58:15.600Z,83.88
2022-08-22T04:59:15.583Z,83.88
2022-08-22T05:00:15.557Z,83.88
2022-08-22T05:01:15.626Z,83.54
2022-08-22T05:02:15.548Z,83.17
2022-08-22T05:03:15.520Z,83.07
2022-08-22T05:04:15.495Z,82.97
2022-08-22T05:05:15.531Z,82.87
2022-08-22T05:06:15.532Z,82.97
2022-08-22T05:07:15.484Z,83.31
2022-08-22T05:08:15.494Z,83.72
2022-08-22T05:09:16.342Z,83.92
2022-08-22T05:10:15.463Z,83.82
2022-08-22T05:11:15.457Z,84.02
2022-08-22T05:12:15.405Z,84.42
2022-08-22T05:13:15.431Z,84.93
2022-08-22T05:14:15.417Z,85.13
2022-08-22T05:15:15.403Z,85.13
2022-08-22T05:16:15.355Z,85.03
2022-08-22T05:17:15.535Z,85.19
2022-08-22T05:18:15.345Z,85.39
2022-08-22T05:19:16.966Z,85.19
2022-08-22T05:20:15.296Z,84.99
2022-08-22T05:21:15.288Z,84.85
2022-08-22T05:22:15.383Z,84.55
2022-08-22T05:23:17.402Z,84.45
2022-08-22T05:24:15.278Z,84.34
2022-08-22T05:25:15.264Z,84.34
2022-08-22T05:26:15.233Z,84.45
2022-08-22T05:27:15.249Z,84.25
2022-08-22T05:28:15.217Z,84.04
2022-08-22T05:29:15.192Z,83.40
2022-08-22T05:30:15.200Z,82.89
2022-08-22T05:31:15.194Z,82.39
2022-08-22T05:32:15.142Z,82.39
2022-08-22T05:33:15.129Z,82.59
2022-08-22T05:34:15.139Z,82.35
2022-08-22T05:35:15.153Z,82.14
2022-08-22T05:36:15.127Z,81.94
2022-08-22T05:37:15.100Z,81.84
2022-08-22T05:38:15.076Z,81.84
2022-08-22T05:39:15.091Z,81.74
2022-08-22T05:40:15.163Z,81.60
2022-08-22T05:41:15.028Z,81.30
2022-08-22T05:42:14.996Z,81.10
2022-08-22T05:43:14.990Z,81.30
2022-08-22T05:44:15.002Z,81.30
2022-08-22T05:45:15.048Z,81.10
2022-08-22T05:46:14.970Z,81.10
2022-08-22T05:47:14.942Z,80.99
2022-08-22T05:48:14.951Z,81.10
2022-08-22T05:49:14.926Z,81.10
2022-08-22T05:50:14.887Z,81.30
2022-08-22T05:51:14.923Z,81.60
2022-08-22T05:52:14.875Z,81.30
2022-08-22T05:53:14.868Z,81.50
2022-08-22T05:54:14.852Z,81.60
2022-08-22T05:55:14.838Z,81.60
2022-08-22T05:56:14.804Z,81.50
2022-08-22T05:57:14.842Z,81.30
2022-08-22T05:58:14.824Z,81.05
2022-08-22T05:59:14.810Z,81.05
2022-08-22T06:00:14.769Z,81.36
2022-08-22T06:01:14.762Z,81.36
2022-08-22T06:02:14.811Z,81.26
2022-08-22T06:03:14.726Z,81.36
2022-08-22T06:04:14.714Z,81.36
2022-08-22T06:05:14.717Z,81.36
2022-08-22T06:06:14.693Z,81.46
2022-08-22T06:07:14.669Z,81.36
2022-08-22T06:08:14.681Z,81.36
2022-08-22T06:09:14.676Z,81.26
2022-08-22T06:10:14.643Z,81.26
2022-08-22T06:11:14.626Z,81.26
2022-08-22T06:12:21.617Z,81.36
2022-08-22T06:13:14.722Z,81.32
2022-08-22T06:14:14.583Z,81.02
2022-08-22T06:15:14.592Z,80.92
2022-08-22T06:16:14.564Z,80.82
2022-08-22T06:17:14.561Z,80.82
2022-08-22T06:18:14.557Z,80.72
2022-08-22T06:19:19.320Z,81.02
2022-08-22T06:20:14.524Z,80.82
2022-08-22T06:21:14.491Z,80.82
2022-08-22T06:22:18.784Z,80.98
2022-08-22T06:23:14.566Z,80.78
2022-08-22T06:24:14.435Z,80.98
2022-08-22T06:25:14.431Z,80.98
2022-08-22T06:26:20.579Z,80.78
2022-08-22T06:27:14.411Z,80.78
2022-08-22T06:28:14.399Z,80.68
2022-08-22T06:29:14.366Z,80.27
2022-08-22T06:30:14.375Z,79.87
2022-08-22T06:31:14.378Z,79.83
2022-08-22T06:32:14.334Z,79.83
2022-08-22T06:33:14.343Z,79.03
2022-08-22T06:34:14.305Z,79.23
2022-08-22T06:35:14.288Z,79.23
2022-08-22T06:36:14.292Z,79.03
2022-08-22T06:37:14.283Z,78.72
2022-08-22T06:38:14.253Z,78.63
2022-08-22T06:39:14.276Z,78.22
2022-08-22T06:40:14.283Z,78.32
2022-08-22T06:41:14.225Z,78.59
2022-08-22T06:42:16.711Z,78.49
2022-08-22T06:43:14.188Z,77.38
2022-08-22T06:44:14.169Z,77.58
2022-08-22T06:45:14.186Z,76.77
2022-08-22T06:46:14.146Z,76.47
2022-08-22T06:47:14.142Z,75.76
2022-08-22T06:48:14.160Z,75.93
2022-08-22T06:49:14.112Z,75.63
2022-08-22T06:50:14.121Z,75.63
2022-08-22T06:51:14.087Z,75.53
2022-08-22T06:52:14.084Z,75.93
2022-08-22T06:53:14.052Z,74.58
2022-08-22T06:54:14.056Z,73.48
2022-08-22T06:55:14.020Z,73.28
2022-08-22T06:56:14.002Z,73.88
2022-08-22T06:57:13.991Z,72.57
2022-08-22T06:58:14.033Z,72.64
2022-08-22T06:59:14.089Z,72.74
2022-08-22T07:00:13.954Z,72.64
2022-08-22T07:01:13.936Z,72.44
2022-08-22T07:02:14.023Z,71.94
2022-08-22T07:03:13.926Z,71.90
2022-08-22T07:04:13.919Z,71.30
2022-08-22T07:05:13.892Z,71.80
2022-08-22T07:06:13.881Z,71.80
2022-08-22T07:07:13.892Z,71.20
2022-08-22T07:08:13.869Z,71.30
2022-08-22T07:09:13.837Z,71.16
2022-08-22T07:10:13.867Z,70.96
2022-08-22T07:11:13.812Z,70.46
2022-08-22T07:12:13.789Z,70.36
2022-08-22T07:13:13.810Z,69.96
2022-08-22T07:14:13.803Z,69.06
2022-08-22T07:15:13.805Z,69.22
2022-08-22T07:16:13.743Z,68.62
2022-08-22T07:17:13.756Z,68.82
2022-08-22T07:18:13.723Z,68.52
2022-08-22T07:19:13.711Z,68.82
2022-08-22T07:20:13.702Z,67.98
2022-08-22T07:21:13.698Z,67.68
2022-08-22T07:22:13.686Z,67.08
2022-08-22T07:23:13.651Z,66.78
2022-08-22T07:24:13.644Z,66.47
2022-08-22T07:25:13.639Z,66.35
2022-08-22T07:26:13.632Z,66.95
2022-08-22T07:27:13.604Z,66.64
2022-08-22T07:28:16.103Z,65.64
2022-08-22T07:29:13.589Z,66.91
2022-08-22T07:30:13.566Z,65.41
2022-08-22T07:31:13.563Z,64.71
2022-08-22T07:32:13.587Z,64.88
2022-08-22T07:33:25.143Z,65.08
2022-08-22T07:34:13.517Z,65.38
2022-08-22T07:35:13.493Z,64.98
2022-08-22T07:36:13.532Z,64.78
2022-08-22T07:37:13.459Z,64.88
2022-08-22T07:38:13.437Z,63.57
2022-08-22T07:39:13.441Z,63.28
2022-08-22T07:40:13.456Z,63.47
2022-08-22T07:41:13.430Z,63.54
2022-08-22T07:42:13.405Z,63.45
2022-08-22T07:43:13.379Z,62.54
2022-08-22T07:44:13.375Z,61.64
2022-08-22T07:45:13.367Z,62.11
2022-08-22T07:46:13.367Z,63.01
2022-08-22T07:47:13.342Z,61.38
2022-08-22T07:48:19.705Z,61.28
2022-08-22T07:49:13.315Z,60.45
2022-08-22T07:50:13.294Z,60.22
2022-08-22T07:51:13.271Z,60.22
2022-08-22T07:52:13.290Z,59.59
2022-08-22T07:53:13.255Z,58.19
2022-08-22T07:54:13.270Z,58.37
2022-08-22T07:55:13.232Z,58.44
2022-08-22T07:56:13.234Z,57.84
2022-08-22T07:57:13.189Z,56.41
2022-08-22T07:58:13.173Z,56.24
2022-08-22T07:59:13.364Z,56.24
2022-08-22T08:00:13.178Z,56.34
2022-08-22T08:01:13.244Z,57.54
2022-08-22T08:02:13.188Z,57.17
2022-08-22T08:03:13.132Z,57.97
2022-08-22T08:04:13.119Z,57.37
2022-08-22T08:05:13.081Z,57.64
2022-08-22T08:06:13.090Z,57.54
2022-08-22T08:07:13.079Z,57.54
2022-08-22T08:08:15.495Z,57.93
2022-08-22T08:09:13.043Z,57.54
2022-08-22T08:10:13.346Z,57.34
2022-08-22T08:11:13.030Z,55.91
2022-08-22T08:12:13.058Z,55.91
2022-08-22T08:13:12.985Z,56.21
2022-08-22T08:14:13.815Z,55.62
2022-08-22T08:15:12.960Z,55.69
2022-08-22T08:16:12.960Z,55.39
2022-08-22T08:17:12.935Z,55.69
2022-08-22T08:18:12.920Z,55.88
2022-08-22T08:19:12.932Z,57.01
2022-08-22T08:20:12.908Z,55.99
2022-08-22T08:21:12.887Z,57.28
2022-08-22T08:22:12.866Z,56.68
2022-08-22T08:23:12.867Z,55.16
2022-08-22T08:24:12.933Z,56.36
2022-08-22T08:25:12.858Z,55.63
2022-08-22T08:26:12.807Z,55.54
2022-08-22T08:27:12.829Z,55.73
2022-08-22T08:28:12.866Z,56.30
2022-08-22T08:29:12.769Z,55.61
2022-08-22T08:30:15.450Z,55.91
2022-08-22T08:31:12.751Z,55.28
2022-08-22T08:32:12.740Z,54.79
2022-08-22T08:33:26.257Z,55.68
2022-08-22T08:34:12.753Z,54.79
2022-08-22T08:35:12.697Z,52.49
2022-08-22T08:36:12.705Z,51.70
2022-08-22T08:37:12.890Z,51.50
2022-08-22T08:38:12.685Z,51.47
2022-08-22T08:39:12.656Z,51.75
2022-08-22T08:40:12.695Z,51.42
2022-08-22T08:41:12.630Z,51.52
2022-08-22T08:42:12.652Z,49.41
2022-08-22T08:43:12.596Z,49.29
2022-08-22T08:44:12.566Z,49.46
2022-08-22T08:45:12.585Z,49.16
2022-08-22T08:46:12.561Z,48.47
2022-08-22T08:47:12.582Z,48.25
2022-08-22T08:48:12.554Z,48.35
2022-08-22T08:49:12.520Z,47.75
2022-08-22T08:50:12.523Z,47.89
2022-08-22T08:51:12.474Z,48.91
2022-08-22T08:52:12.518Z,49.38
2022-08-22T08:53:12.492Z,49.16
2022-08-22T08:54:12.475Z,48.54
2022-08-22T08:55:19.979Z,48.22
2022-08-22T08:56:13.404Z,48.42
2022-08-22T08:57:12.467Z,48.72
2022-08-22T08:58:12.401Z,48.52
2022-08-22T08:59:12.405Z,48.13
2022-08-22T09:00:12.414Z,47.83
2022-08-22T09:01:12.415Z,48.10
2022-08-22T09:02:13.796Z,47.41
2022-08-22T09:03:15.880Z,47.03
2022-08-22T09:40:15.327Z,47.73
2022-08-22T09:40:30.047Z,46.42
2022-08-22T09:41:30.051Z,45.53
2022-08-22T09:42:30.022Z,45.53
2022-08-22T09:43:30.017Z,45.73
2022-08-22T09:44:30.011Z,45.93
2022-08-22T09:45:30.024Z,46.20
2022-08-22T09:46:36.563Z,45.89
2022-08-22T09:47:31.308Z,45.19
2022-08-22T09:48:29.948Z,44.70
2022-08-22T09:49:29.970Z,44.92
2022-08-22T09:50:29.960Z,45.68
2022-08-22T09:51:31.550Z,44.58
2022-08-22T09:52:33.263Z,43.96
2022-08-22T09:53:29.903Z,43.57
2022-08-22T09:54:31.505Z,44.48
2022-08-22T09:55:35.247Z,44.48
2022-08-22T09:56:29.857Z,45.07
2022-08-22T09:57:29.829Z,44.09
2022-08-22T09:58:29.839Z,44.18
2022-08-22T09:59:29.815Z,44.48
2022-08-22T10:00:29.880Z,44.36
2022-08-22T10:01:32.754Z,44.36
2022-08-22T10:02:29.785Z,43.87
2022-08-22T10:03:29.781Z,44.16
2022-08-22T10:04:29.742Z,43.27
2022-08-22T10:05:40.808Z,43.87
2022-08-22T10:06:29.741Z,43.96
2022-08-22T10:07:29.703Z,44.36
2022-08-22T10:08:29.723Z,44.65
2022-08-22T10:09:31.934Z,44.54
2022-08-22T10:10:29.697Z,44.34
2022-08-22T10:11:29.654Z,44.24
2022-08-22T10:12:33.795Z,43.92
2022-08-22T10:13:29.654Z,44.02
2022-08-22T10:14:29.636Z,43.13
2022-08-22T10:15:29.649Z,43.13
2022-08-22T10:16:29.614Z,43.92
2022-08-22T10:17:29.587Z,44.02
2022-08-22T10:18:29.560Z,44.20
2022-08-22T10:19:29.556Z,44.10
2022-08-22T10:20:29.585Z,43.21
2022-08-22T10:21:29.553Z,42.82
2022-08-22T10:22:29.926Z,43.21
2022-08-22T10:23:29.497Z,43.41
2022-08-22T10:24:29.512Z,42.74
2022-08-22T10:25:29.491Z,42.93
2022-08-22T10:26:29.486Z,43.43
2022-08-22T10:27:29.452Z,42.72
2022-08-22T10:28:30.033Z,42.82
2022-08-22T10:29:29.428Z,42.32
2022-08-22T10:30:29.442Z,42.91
2022-08-22T10:31:29.428Z,43.21
2022-08-22T10:32:29.393Z,42.91
2022-08-22T10:33:29.417Z,42.64
2022-08-22T10:34:29.369Z,43.73
2022-08-22T10:35:29.347Z,43.11
2022-08-22T10:36:29.345Z,42.72
2022-08-22T10:37:29.342Z,42.52
2022-08-22T10:38:29.307Z,42.91
2022-08-22T10:39:29.336Z,42.72
2022-08-22T10:40:29.354Z,42.02
2022-08-22T10:41:29.278Z,42.02
2022-08-22T10:42:35.163Z,42.61
2022-08-22T10:43:29.281Z,41.04
2022-08-22T10:44:29.252Z,41.24
2022-08-22T10:45:35.921Z,41.73
2022-08-22T10:46:29.259Z,41.73
2022-08-22T10:47:29.208Z,40.94
2022-08-22T10:48:29.179Z,41.43
2022-08-22T10:49:29.514Z,42.32
2022-08-22T10:50:29.154Z,41.24
2022-08-22T10:51:29.155Z,40.33
2022-08-22T10:52:29.180Z,39.34
2022-08-22T10:53:29.592Z,40.92
2022-08-22T10:54:29.096Z,40.23
2022-08-22T10:55:29.099Z,39.44
2022-08-22T10:56:29.070Z,39.94
2022-08-22T10:57:29.098Z,39.81
2022-08-22T10:58:29.109Z,39.52
2022-08-22T10:59:29.058Z,38.83
2022-08-22T11:00:29.024Z,39.23
2022-08-22T11:01:38.594Z,39.03
2022-08-22T11:02:28.991Z,38.43
2022-08-22T11:03:28.976Z,38.35
2022-08-22T11:04:29.000Z,38.95
2022-08-22T11:05:28.958Z,39.15
2022-08-22T11:06:28.955Z,39.72
2022-08-22T11:07:28.963Z,37.74
2022-08-22T11:08:28.974Z,38.14
2022-08-22T11:09:30.345Z,37.85
2022-08-22T11:10:28.919Z,37.26
2022-08-22T11:11:32.717Z,37.45
2022-08-22T11:12:34.874Z,38.54
2022-08-22T11:13:28.863Z,38.83
2022-08-22T11:14:28.834Z,37.15
2022-08-22T11:15:34.896Z,36.66
2022-08-22T11:16:28.863Z,36.36
2022-08-22T11:17:32.245Z,37.15
2022-08-22T11:18:28.798Z,35.48
2022-08-22T11:19:28.820Z,37.34
2022-08-22T11:20:28.807Z,36.35
2022-08-22T11:21:28.807Z,36.05
2022-08-22T11:22:28.736Z,36.25
2022-08-22T11:23:28.727Z,35.36
2022-08-22T11:24:35.391Z,35.88
2022-08-22T11:25:36.019Z,35.17
2022-08-22T11:26:33.804Z,35.46
2022-08-22T11:27:34.452Z,35.38
2022-08-22T11:28:28.755Z,36.57
2022-08-22T11:29:28.655Z,36.07
2022-08-22T11:30:28.666Z,35.96
2022-08-22T11:31:31.785Z,35.76
2022-08-22T11:32:28.624Z,35.76
2022-08-22T11:33:33.853Z,36.35
2022-08-22T11:34:28.572Z,34.58
2022-08-22T11:35:28.565Z,35.74
2022-08-22T11:36:30.584Z,35.05
2022-08-22T11:37:42.839Z,34.86
2022-08-22T11:38:30.649Z,35.13
2022-08-22T11:39:28.547Z,35.53
2022-08-22T11:40:28.662Z,35.64
2022-08-22T11:41:28.494Z,34.75
2022-08-22T11:42:29.491Z,35.15
2022-08-22T11:43:28.953Z,35.74
2022-08-22T11:44:28.447Z,35.05
2022-08-22T11:45:28.447Z,35.05
2022-08-22T11:46:28.428Z,34.56
2022-08-22T11:47:29.012Z,34.58
2022-08-22T11:48:28.404Z,34.87
2022-08-22T11:49:28.384Z,34.56
2022-08-22T11:50:28.363Z,34.17
2022-08-22T11:51:28.365Z,33.58
2022-08-22T11:52:28.361Z,32.79
2022-08-22T11:53:28.366Z,33.38
2022-08-22T11:54:31.212Z,34.06
2022-08-22T11:55:32.787Z,34.36
2022-08-22T11:56:28.286Z,34.48
2022-08-22T11:57:28.283Z,33.39
2022-08-22T11:58:29.233Z,33.89
2022-08-22T11:59:28.292Z,33.67
2022-08-22T12:00:28.227Z,33.77
2022-08-22T12:01:28.261Z,34.84
2022-08-22T12:02:28.306Z,33.95
2022-08-22T12:03:28.207Z,33.87
2022-08-22T12:04:28.210Z,33.46
2022-08-22T12:05:28.178Z,31.88
2022-08-22T12:06:28.200Z,32.39
2022-08-22T12:07:28.142Z,33.10
2022-08-22T12:08:28.136Z,31.63
2022-08-22T12:09:28.145Z,31.75
2022-08-22T12:10:28.151Z,32.35
2022-08-22T12:11:28.122Z,33.13
2022-08-22T12:12:28.080Z,34.31
2022-08-22T12:13:34.989Z,34.49
2022-08-22T12:14:28.087Z,34.28
2022-08-22T12:15:28.587Z,33.49
2022-08-22T12:16:28.077Z,31.72
2022-08-22T12:17:50.837Z,33.87
2022-08-22T12:18:28.037Z,32.29
2022-08-22T12:19:28.000Z,32.89
2022-08-22T12:20:28.023Z,31.21
2022-08-22T12:21:27.961Z,32.08
2022-08-22T12:22:28.798Z,34.34
2022-08-22T12:23:38.086Z,32.38
2022-08-22T12:24:27.997Z,33.36
2022-08-22T12:25:27.915Z,33.36
2022-08-22T12:26:27.881Z,33.17
2022-08-22T12:27:28.560Z,33.77
2022-08-22T12:28:27.882Z,33.48
2022-08-22T12:29:33.849Z,33.77
2022-08-22T12:30:27.870Z,33.87
2022-08-22T12:31:27.839Z,34.56
2022-08-22T12:32:27.986Z,34.56
2022-08-22T12:33:27.836Z,34.18
2022-08-22T12:34:27.803Z,34.97
2022-08-22T12:35:30.218Z,35.35
2022-08-22T12:36:27.767Z,36.23
2022-08-22T12:37:27.773Z,34.75
2022-08-22T12:38:29.052Z,35.53
2022-08-22T12:39:27.783Z,34.15
2022-08-22T12:40:27.773Z,33.56
2022-08-22T12:41:34.756Z,33.95
2022-08-22T12:42:27.735Z,35.43
2022-08-22T12:43:27.710Z,34.34
2022-08-22T12:44:27.684Z,35.03
2022-08-22T12:45:27.675Z,35.03
2022-08-22T12:46:28.313Z,33.86
2022-08-22T12:47:27.656Z,34.15
2022-08-22T12:48:27.691Z,34.54
2022-08-22T12:49:27.606Z,33.75
2022-08-22T12:50:27.605Z,33.95
2022-08-22T12:51:27.604Z,34.44
2022-08-22T12:52:27.592Z,33.95
2022-08-22T12:53:27.549Z,34.15
2022-08-22T12:54:27.537Z,33.65
2022-08-22T12:55:27.524Z,33.67
2022-08-22T12:56:27.638Z,34.95
2022-08-22T12:57:27.497Z,34.75
2022-08-22T12:58:31.708Z,34.25
2022-08-22T12:59:27.483Z,34.15
2022-08-22T13:00:27.616Z,34.64
2022-08-22T13:01:34.109Z,34.15
2022-08-22T13:02:27.445Z,34.44
2022-08-22T13:03:27.447Z,34.82
2022-08-22T13:04:33.211Z,35.02
2022-08-22T13:05:27.427Z,36.28
2022-08-22T13:06:27.496Z,34.11
2022-08-22T13:07:27.364Z,33.62
2022-08-22T13:08:27.346Z,33.33
2022-08-22T13:09:28.854Z,33.13
2022-08-22T13:10:27.355Z,33.25
2022-08-22T13:11:27.329Z,33.74
2022-08-22T13:12:27.709Z,34.43
2022-08-22T13:13:31.810Z,33.74
2022-08-22T13:14:27.301Z,33.13
2022-08-22T13:15:27.275Z,32.95
2022-08-22T13:16:27.300Z,33.94
2022-08-22T13:17:27.256Z,34.43
2022-08-22T13:18:31.137Z,33.74
2022-08-22T13:19:27.268Z,33.44
2022-08-22T13:20:27.215Z,34.31
2022-08-22T13:21:31.396Z,33.72
2022-08-22T13:22:27.176Z,33.82
2022-08-22T13:23:27.208Z,34.31
2022-08-22T13:24:38.453Z,33.54
2022-08-22T13:25:27.181Z,33.72
2022-08-22T13:26:34.536Z,33.62
2022-08-22T13:27:30.252Z,35.00
2022-08-22T13:28:27.308Z,33.80
2022-08-22T13:29:27.404Z,33.02